Atkins, Virginia
Current Conditions -  °F | °C
As of 9:15 AM on Thursday 30 Oct 2014 (Local Time) from KMKJ Reporting Station
Haze Haze  
Wind Chill: 37°   Ceiling: 300
Heat Index: 41°   Visibility: 5mi
Dew Point: 40°   Wind: 7mph
Humidity: 93%   Direction: 270°W
Pressure: 30.12"   Gusts: NA
Location:  36.87°N, 81.4°W
Report Text: KMKJ 301315Z AUTO 27006KT 5SM BR OVC003 05/04 A3012 RMK AO2 T00520042
Loading
Personal Weather Stations






























Interactive Weather Map
Tropical Storm Tracking
New forecast layout! Learn more

10-Day Weather Forecast

Advertisements
Track Severe Weather on mobile